Time;durP1;ratioP1;P1;durP2;ratioP2;P2;SDS_P1;SDS_P2;PMS_P1;PMS_P2;Temp;Humidity;BMP_temperature;BMP_pressure;BME280_temperature;BME280_humidity;BME280_pressure;Samples;Min_cycle;Max_cycle;Signal;HPM_P1;HPM_P2
2023/05/21 00:01:33;;;;;;;;;;;15.00;99.90;;;;;;5113469;28;20368;-47
2023/05/21 00:03:58;;;;;;;;;;;15.00;99.90;;;;;;5114190;28;19918;-46
2023/05/21 00:06:24;;;;;;;;;;;14.90;99.90;;;;;;5114116;28;19912;-46
2023/05/21 00:08:49;;;;;;;;;;;14.90;99.90;;;;;;5113347;28;19916;-46
2023/05/21 00:11:15;;;;;;;;;;;14.90;99.90;;;;;;5113930;28;19961;-46
2023/05/21 00:13:40;;;;;;;;;;;14.90;99.90;;;;;;5113996;28;19907;-46
2023/05/21 00:16:06;;;;;;;;;;;14.90;99.90;;;;;;5113084;28;19912;-45
2023/05/21 00:18:33;;;;;;;;;;;14.90;99.90;;;;;;5113800;28;19957;-46
2023/05/21 00:20:59;;;;;;;;;;;14.80;99.90;;;;;;5113739;28;20231;-46
2023/05/21 00:23:25;;;;;;;;;;;14.90;99.90;;;;;;5113157;28;19912;-47
2023/05/21 00:25:51;;;;;;;;;;;14.90;99.90;;;;;;5113746;28;19961;-46
2023/05/21 00:28:16;;;;;;;;;;;14.90;99.90;;;;;;5113921;28;19907;-46
2023/05/21 00:30:42;;;;;;;;;;;14.80;99.90;;;;;;5112910;28;19908;-47
2023/05/21 00:33:09;;;;;;;;;;;14.80;99.90;;;;;;5113618;28;19915;-45
2023/05/21 00:35:34;;;;;;;;;;;14.80;99.90;;;;;;5113328;28;19927;-45
2023/05/21 00:38:00;;;;;;;;;;;14.80;99.90;;;;;;5112803;28;19908;-45
2023/05/21 00:40:25;;;;;;;;;;;14.80;99.90;;;;;;5113594;28;20067;-46
2023/05/21 00:42:52;;;;;;;;;;;14.80;99.90;;;;;;5113476;28;19920;-46
2023/05/21 00:45:18;;;;;;;;;;;14.80;99.90;;;;;;5111966;28;19964;-45
2023/05/21 00:47:44;;;;;;;;;;;14.80;99.90;;;;;;5113405;28;20345;-47
2023/05/21 00:50:10;;;;;;;;;;;14.80;99.90;;;;;;5113439;28;19908;-46
2023/05/21 00:52:40;;;;;;;;;;;14.70;99.90;;;;;;5112484;28;20332;-47
2023/05/21 00:55:06;;;;;;;;;;;14.70;99.90;;;;;;5113587;28;20011;-47
2023/05/21 00:57:32;;;;;;;;;;;14.70;99.90;;;;;;5112457;28;19919;-48
2023/05/21 00:59:57;;;;;;;;;;;14.70;99.90;;;;;;5113157;28;19912;-46
2023/05/21 01:02:24;;;;;;;;;;;14.70;99.90;;;;;;5113186;28;19916;-47
2023/05/21 01:04:53;;;;;;;;;;;14.70;99.90;;;;;;5112419;28;20420;-46
2023/05/21 01:07:18;;;;;;;;;;;14.70;99.90;;;;;;5113114;28;19908;-45
2023/05/21 01:09:44;;;;;;;;;;;14.70;99.90;;;;;;5113135;28;20419;-45
2023/05/21 01:12:10;;;;;;;;;;;14.70;99.90;;;;;;5112645;28;19914;-45
2023/05/21 01:14:36;;;;;;;;;;;14.70;99.90;;;;;;5108744;28;20485;-45
2023/05/21 01:17:03;;;;;;;;;;;14.60;99.90;;;;;;5092817;28;20172;-46
2023/05/21 01:19:31;;;;;;;;;;;14.60;99.90;;;;;;5093013;28;19912;-45
2023/05/21 01:22:00;;;;;;;;;;;14.60;99.90;;;;;;5092620;28;19969;-45
2023/05/21 01:24:25;;;;;;;;;;;14.50;99.90;;;;;;5092756;28;19908;-48
2023/05/21 01:26:51;;;;;;;;;;;14.50;99.90;;;;;;5091886;28;19987;-46
2023/05/21 01:29:16;;;;;;;;;;;14.50;99.90;;;;;;5092606;28;20291;-45
2023/05/21 01:31:47;;;;;;;;;;;14.60;99.90;;;;;;5092630;28;19908;-45
2023/05/21 01:34:13;;;;;;;;;;;14.50;99.90;;;;;;5096489;28;19959;-46
2023/05/21 01:36:41;;;;;;;;;;;14.60;99.90;;;;;;5112893;28;19908;-46
2023/05/21 01:39:15;;;;;;;;;;;14.60;99.90;;;;;;5113120;28;19996;-47
2023/05/21 01:41:43;;;;;;;;;;;14.60;99.90;;;;;;5111919;28;20385;-45
2023/05/21 01:44:09;;;;;;;;;;;14.60;99.90;;;;;;5112906;28;20354;-47
2023/05/21 01:46:36;;;;;;;;;;;14.60;99.90;;;;;;5119861;28;19926;-46
2023/05/21 01:49:01;;;;;;;;;;;14.60;99.90;;;;;;5134910;27;20366;-46
2023/05/21 01:51:27;;;;;;;;;;;14.60;99.90;;;;;;5137407;27;20007;-45
2023/05/21 01:53:52;;;;;;;;;;;14.60;99.90;;;;;;5136569;27;19990;-45
2023/05/21 01:56:18;;;;;;;;;;;14.60;99.90;;;;;;5137293;27;19907;-45
2023/05/21 01:58:43;;;;;;;;;;;14.60;99.90;;;;;;5137325;27;19938;-44
2023/05/21 02:01:10;;;;;;;;;;;14.60;99.90;;;;;;5136435;27;19915;-46
2023/05/21 02:03:37;;;;;;;;;;;14.60;99.90;;;;;;5137152;27;20440;-44
2023/05/21 02:06:02;;;;;;;;;;;14.60;99.90;;;;;;5137064;27;20014;-45
2023/05/21 02:08:28;;;;;;;;;;;14.60;99.90;;;;;;5136361;27;20001;-47
2023/05/21 02:10:54;;;;;;;;;;;14.60;99.90;;;;;;5137225;27;19951;-46
2023/05/21 02:13:20;;;;;;;;;;;14.60;99.90;;;;;;5137040;27;19908;-45
2023/05/21 02:15:46;;;;;;;;;;;14.60;99.90;;;;;;5135703;27;19912;-45
2023/05/21 02:18:15;;;;;;;;;;;14.60;99.90;;;;;;5136263;27;20282;-46
2023/05/21 02:20:41;;;;;;;;;;;14.60;99.90;;;;;;5136758;27;19908;-46
2023/05/21 02:23:06;;;;;;;;;;;14.60;99.90;;;;;;5135940;27;20063;-44
2023/05/21 02:25:32;;;;;;;;;;;14.60;99.90;;;;;;5136548;27;19911;-46
2023/05/21 02:27:58;;;;;;;;;;;14.60;99.90;;;;;;5136050;27;19912;-45
2023/05/21 02:30:23;;;;;;;;;;;14.60;99.90;;;;;;5135939;27;19908;-46
2023/05/21 02:32:49;;;;;;;;;;;14.60;99.90;;;;;;5136266;27;20328;-46
2023/05/21 02:35:15;;;;;;;;;;;14.50;99.90;;;;;;5136363;27;19919;-46
2023/05/21 02:37:40;;;;;;;;;;;14.60;99.90;;;;;;5135755;27;20282;-46
2023/05/21 02:40:06;;;;;;;;;;;14.60;99.90;;;;;;5136334;27;19907;-47
2023/05/21 02:42:32;;;;;;;;;;;14.50;99.90;;;;;;5136233;27;19916;-46
2023/05/21 02:44:58;;;;;;;;;;;14.50;99.90;;;;;;5132733;27;19920;-48
2023/05/21 02:47:24;;;;;;;;;;;14.50;99.90;;;;;;5115757;28;20374;-46
2023/05/21 02:49:50;;;;;;;;;;;14.50;99.90;;;;;;5115642;28;19912;-46
2023/05/21 02:52:18;;;;;;;;;;;14.50;99.90;;;;;;5115077;28;19915;-47
2023/05/21 02:54:44;;;;;;;;;;;14.50;99.90;;;;;;5115459;27;19951;-45
2023/05/21 02:57:10;;;;;;;;;;;14.50;99.90;;;;;;5114853;28;19907;-47
2023/05/21 02:59:35;;;;;;;;;;;14.50;99.90;;;;;;5114292;28;19953;-46
2023/05/21 03:02:01;;;;;;;;;;;14.50;99.90;;;;;;5115443;28;19942;-46
2023/05/21 03:04:27;;;;;;;;;;;14.50;99.90;;;;;;5114730;28;20680;-45
2023/05/21 03:06:53;;;;;;;;;;;14.40;99.90;;;;;;5115154;28;19928;-46
2023/05/21 03:09:22;;;;;;;;;;;14.40;99.90;;;;;;5115344;28;20362;-45
2023/05/21 03:11:48;;;;;;;;;;;14.40;99.90;;;;;;5114446;28;19988;-46
2023/05/21 03:14:13;;;;;;;;;;;14.40;99.90;;;;;;5115145;28;19962;-45
2023/05/21 03:16:40;;;;;;;;;;;14.40;99.90;;;;;;5130881;27;19918;-46
2023/05/21 03:19:06;;;;;;;;;;;14.40;99.90;;;;;;5135024;27;19907;-45
2023/05/21 03:21:32;;;;;;;;;;;14.40;99.90;;;;;;5135530;27;19912;-45
2023/05/21 03:23:58;;;;;;;;;;;14.40;99.90;;;;;;5135558;27;19908;-47
2023/05/21 03:26:26;;;;;;;;;;;14.30;99.90;;;;;;5134902;27;20445;-45
2023/05/21 03:28:52;;;;;;;;;;;14.30;99.90;;;;;;5135466;27;20015;-46
2023/05/21 03:31:17;;;;;;;;;;;14.30;99.90;;;;;;5135550;27;19908;-45
2023/05/21 03:33:42;;;;;;;;;;;14.30;99.90;;;;;;5134334;27;19911;-46
2023/05/21 03:36:08;;;;;;;;;;;14.30;99.90;;;;;;5117764;27;20378;-46
2023/05/21 03:38:33;;;;;;;;;;;14.30;99.90;;;;;;5114707;28;20037;-46
2023/05/21 03:40:59;;;;;;;;;;;14.30;99.90;;;;;;5113939;28;19915;-46
2023/05/21 03:43:24;;;;;;;;;;;14.40;99.90;;;;;;5127154;27;19918;-45
2023/05/21 03:45:50;;;;;;;;;;;14.30;99.90;;;;;;5135222;27;19918;-44
2023/05/21 03:48:16;;;;;;;;;;;14.30;99.90;;;;;;5134325;27;20255;-46
2023/05/21 03:50:42;;;;;;;;;;;14.30;99.90;;;;;;5135009;27;19911;-45
2023/05/21 03:53:09;;;;;;;;;;;14.30;99.90;;;;;;5134964;27;19914;-46
2023/05/21 03:55:35;;;;;;;;;;;14.30;99.90;;;;;;5134109;27;20270;-45
2023/05/21 03:58:00;;;;;;;;;;;14.30;99.90;;;;;;5135002;27;19994;-46
2023/05/21 04:00:26;;;;;;;;;;;14.30;99.90;;;;;;5133931;27;20482;-48
2023/05/21 04:02:51;;;;;;;;;;;14.30;99.90;;;;;;5134777;27;19924;-46
2023/05/21 04:05:17;;;;;;;;;;;14.30;99.90;;;;;;5134739;27;19907;-47
2023/05/21 04:07:45;;;;;;;;;;;14.20;99.90;;;;;;5133832;27;19915;-46
2023/05/21 04:10:10;;;;;;;;;;;14.30;99.90;;;;;;5134643;27;19915;-45
2023/05/21 04:12:36;;;;;;;;;;;14.30;99.90;;;;;;5128215;27;20328;-45
2023/05/21 04:15:02;;;;;;;;;;;14.30;99.90;;;;;;5113205;28;19918;-45
2023/05/21 04:17:27;;;;;;;;;;;14.30;99.90;;;;;;5113987;28;19908;-46
2023/05/21 04:19:53;;;;;;;;;;;14.30;99.90;;;;;;5113948;28;19908;-46
2023/05/21 04:22:18;;;;;;;;;;;14.30;99.90;;;;;;5101255;28;19919;-46
2023/05/21 04:24:45;;;;;;;;;;;14.30;99.90;;;;;;5113849;28;19911;-45
2023/05/21 04:27:12;;;;;;;;;;;14.30;99.90;;;;;;5113924;28;20115;-46
2023/05/21 04:29:41;;;;;;;;;;;14.40;99.90;;;;;;5113217;28;19951;-49
2023/05/21 04:32:07;;;;;;;;;;;14.40;99.90;;;;;;5113826;28;19943;-45
2023/05/21 04:34:32;;;;;;;;;;;14.40;99.90;;;;;;5113409;28;19928;-46
2023/05/21 04:36:59;;;;;;;;;;;14.40;99.90;;;;;;5112851;28;20397;-46
2023/05/21 04:39:24;;;;;;;;;;;14.40;99.90;;;;;;5113620;28;19916;-45
2023/05/21 04:41:53;;;;;;;;;;;14.40;99.90;;;;;;5113486;28;19927;-46
2023/05/21 04:44:19;;;;;;;;;;;14.40;99.90;;;;;;5117906;27;19912;-45
2023/05/21 04:46:44;;;;;;;;;;;14.40;99.90;;;;;;5133971;27;19907;-44
2023/05/21 04:49:10;;;;;;;;;;;14.40;99.90;;;;;;5133935;27;19907;-46
2023/05/21 04:51:36;;;;;;;;;;;14.40;99.90;;;;;;5133189;27;19912;-46
2023/05/21 04:54:02;;;;;;;;;;;14.40;99.90;;;;;;5134913;27;19911;-47
2023/05/21 04:56:28;;;;;;;;;;;14.40;99.90;;;;;;5136576;27;19918;-46
2023/05/21 04:58:53;;;;;;;;;;;14.40;99.90;;;;;;5133635;27;20281;-45
2023/05/21 05:01:22;;;;;;;;;;;14.40;99.90;;;;;;5144201;27;19915;-45
2023/05/21 05:03:47;;;;;;;;;;;14.40;99.90;;;;;;5146043;27;19914;-46
2023/05/21 05:06:13;;;;;;;;;;;14.40;99.90;;;;;;5154634;27;19907;-45
2023/05/21 05:08:38;;;;;;;;;;;14.40;99.90;;;;;;5154417;27;19907;-45
2023/05/21 05:11:04;;;;;;;;;;;14.40;99.90;;;;;;5153785;27;19957;-46
2023/05/21 05:13:29;;;;;;;;;;;14.40;99.90;;;;;;5128510;27;20374;-48
2023/05/21 05:15:56;;;;;;;;;;;14.40;99.90;;;;;;5113115;28;19908;-45
2023/05/21 05:18:21;;;;;;;;;;;14.40;99.90;;;;;;5112296;28;19908;-46
2023/05/21 05:20:47;;;;;;;;;;;14.40;99.90;;;;;;5116884;28;20334;-46
2023/05/21 05:23:13;;;;;;;;;;;14.40;99.90;;;;;;5134682;27;20321;-46
2023/05/21 05:25:38;;;;;;;;;;;14.40;99.90;;;;;;5137189;27;19928;-45
2023/05/21 05:28:03;;;;;;;;;;;14.50;99.90;;;;;;5137997;27;19990;-46
2023/05/21 05:30:29;;;;;;;;;;;14.50;99.90;;;;;;5137812;27;20465;-46
2023/05/21 05:32:55;;;;;;;;;;;14.50;99.90;;;;;;5131042;27;19912;-46
2023/05/21 05:35:20;;;;;;;;;;;14.50;99.90;;;;;;5126084;27;19919;-46
2023/05/21 05:37:46;;;;;;;;;;;14.50;99.90;;;;;;5126922;27;20364;-48
2023/05/21 05:40:11;;;;;;;;;;;14.60;99.90;;;;;;5125087;27;19934;-45
2023/05/21 05:42:37;;;;;;;;;;;14.60;99.90;;;;;;5126483;27;19919;-46
2023/05/21 05:45:02;;;;;;;;;;;14.60;99.90;;;;;;5119299;27;19915;-47
2023/05/21 05:47:28;;;;;;;;;;;14.60;99.90;;;;;;5131720;27;19911;-48
2023/05/21 05:49:54;;;;;;;;;;;14.60;99.90;;;;;;5137336;27;19907;-45
2023/05/21 05:52:19;;;;;;;;;;;14.60;99.90;;;;;;5136450;27;19911;-46
2023/05/21 05:54:45;;;;;;;;;;;14.60;99.90;;;;;;5136549;27;19975;-47
2023/05/21 05:57:10;;;;;;;;;;;14.70;99.90;;;;;;5137441;27;19958;-45
2023/05/21 05:59:35;;;;;;;;;;;14.70;99.90;;;;;;5137250;27;19912;-46
2023/05/21 06:02:01;;;;;;;;;;;14.70;99.90;;;;;;5136347;27;19923;-46
2023/05/21 06:04:28;;;;;;;;;;;14.80;99.90;;;;;;5137474;27;19908;-47
2023/05/21 06:06:56;;;;;;;;;;;14.80;99.90;;;;;;5136850;27;19911;-46
2023/05/21 06:09:22;;;;;;;;;;;14.80;99.90;;;;;;5136480;27;19908;-45
2023/05/21 06:11:48;;;;;;;;;;;14.80;99.90;;;;;;5115834;27;19934;-45
2023/05/21 06:14:13;;;;;;;;;;;14.90;99.90;;;;;;5125461;27;19908;-45
2023/05/21 06:16:38;;;;;;;;;;;14.90;99.90;;;;;;5125213;27;19908;-47
2023/05/21 06:19:04;;;;;;;;;;;15.00;99.90;;;;;;5127112;27;20429;-45
2023/05/21 06:21:30;;;;;;;;;;;15.00;99.90;;;;;;5124645;27;19916;-48
2023/05/21 06:23:55;;;;;;;;;;;15.10;99.90;;;;;;5125606;27;19911;-46
2023/05/21 06:26:21;;;;;;;;;;;15.10;99.90;;;;;;5126926;27;19916;-46
2023/05/21 06:28:46;;;;;;;;;;;15.10;99.90;;;;;;5123872;27;19915;-46
2023/05/21 06:31:12;;;;;;;;;;;15.20;99.90;;;;;;5143148;27;20446;-46
2023/05/21 06:33:37;;;;;;;;;;;15.20;99.90;;;;;;5127601;27;20381;-46
2023/05/21 06:36:03;;;;;;;;;;;15.30;99.90;;;;;;5125736;27;19972;-46
2023/05/21 06:38:28;;;;;;;;;;;15.30;99.90;;;;;;5127284;27;20303;-46
2023/05/21 06:40:54;;;;;;;;;;;15.40;99.90;;;;;;5126204;27;20370;-44
2023/05/21 06:43:19;;;;;;;;;;;15.40;99.90;;;;;;5126631;27;19935;-45
2023/05/21 06:45:45;;;;;;;;;;;15.50;99.90;;;;;;5123544;27;20408;-46
2023/05/21 06:48:11;;;;;;;;;;;15.50;99.90;;;;;;5129718;27;19912;-45
2023/05/21 06:50:36;;;;;;;;;;;15.50;99.90;;;;;;5125100;27;19956;-45
2023/05/21 06:53:02;;;;;;;;;;;15.60;99.90;;;;;;5126066;27;19920;-48
2023/05/21 06:55:28;;;;;;;;;;;15.60;99.90;;;;;;5125136;27;19911;-46
2023/05/21 06:57:53;;;;;;;;;;;15.70;99.90;;;;;;5124223;27;19965;-45
2023/05/21 07:00:19;;;;;;;;;;;15.70;99.90;;;;;;5119923;27;19912;-45
2023/05/21 07:02:44;;;;;;;;;;;15.80;99.90;;;;;;5122042;27;20302;-46
2023/05/21 07:05:10;;;;;;;;;;;15.80;99.90;;;;;;5124108;27;19912;-47
2023/05/21 07:07:35;;;;;;;;;;;15.90;99.90;;;;;;5125968;27;19918;-46
2023/05/21 07:10:01;;;;;;;;;;;15.90;99.90;;;;;;5128357;27;19933;-45
2023/05/21 07:12:26;;;;;;;;;;;16.00;99.90;;;;;;5133415;27;20010;-45
2023/05/21 07:14:52;;;;;;;;;;;16.10;99.90;;;;;;5135627;27;20326;-45
2023/05/21 07:17:17;;;;;;;;;;;16.00;99.90;;;;;;5135339;27;19915;-45
2023/05/21 07:19:42;;;;;;;;;;;16.10;99.90;;;;;;5135366;27;19912;-44
2023/05/21 07:22:08;;;;;;;;;;;16.20;99.90;;;;;;5135725;27;19947;-45
2023/05/21 07:24:33;;;;;;;;;;;16.20;99.90;;;;;;5134808;27;20266;-47
2023/05/21 07:26:59;;;;;;;;;;;16.30;99.90;;;;;;5135660;27;19911;-46
2023/05/21 07:29:25;;;;;;;;;;;16.30;99.90;;;;;;5135522;27;19911;-45
2023/05/21 07:31:50;;;;;;;;;;;16.40;99.90;;;;;;5132692;27;19915;-45
2023/05/21 07:34:16;;;;;;;;;;;16.40;99.90;;;;;;5135011;27;19926;-46
2023/05/21 07:36:41;;;;;;;;;;;16.40;99.90;;;;;;5135415;27;20323;-47
2023/05/21 07:39:07;;;;;;;;;;;16.40;99.90;;;;;;5134582;27;19915;-45
2023/05/21 07:41:32;;;;;;;;;;;16.40;99.90;;;;;;5135120;27;19927;-49
2023/05/21 07:44:00;;;;;;;;;;;16.50;99.90;;;;;;5152227;27;20310;-45
2023/05/21 07:46:25;;;;;;;;;;;16.40;99.90;;;;;;5146399;27;20440;-45
2023/05/21 07:48:51;;;;;;;;;;;16.50;99.90;;;;;;5141825;27;20006;-44
2023/05/21 07:51:16;;;;;;;;;;;16.50;99.90;;;;;;5137780;27;19984;-46
2023/05/21 07:53:42;;;;;;;;;;;16.60;99.90;;;;;;5145500;27;19972;-45
2023/05/21 07:56:07;;;;;;;;;;;16.60;99.90;;;;;;5152846;27;20270;-45
2023/05/21 07:58:34;;;;;;;;;;;16.70;99.90;;;;;;5150168;27;19922;-44
2023/05/21 08:00:59;;;;;;;;;;;16.80;99.90;;;;;;5144701;27;20011;-46
2023/05/21 08:03:25;;;;;;;;;;;16.80;99.90;;;;;;5144510;27;20013;-46
2023/05/21 08:05:50;;;;;;;;;;;16.80;99.90;;;;;;5150478;27;19911;-46
2023/05/21 08:08:20;;;;;;;;;;;16.80;99.90;;;;;;5135892;27;20380;-45
2023/05/21 08:10:46;;;;;;;;;;;16.90;99.90;;;;;;5146944;27;20393;-44
2023/05/21 08:13:12;;;;;;;;;;;17.00;99.90;;;;;;5154059;27;19951;-44
2023/05/21 08:15:38;;;;;;;;;;;17.00;99.90;;;;;;5143528;27;19911;-45
2023/05/21 08:18:04;;;;;;;;;;;17.10;99.90;;;;;;5150270;27;19911;-45
2023/05/21 08:20:31;;;;;;;;;;;17.10;99.90;;;;;;5150985;27;20280;-45
2023/05/21 08:22:56;;;;;;;;;;;17.10;99.90;;;;;;5134683;27;19965;-46
2023/05/21 08:25:22;;;;;;;;;;;17.10;99.90;;;;;;5144304;27;19930;-46
2023/05/21 08:27:47;;;;;;;;;;;17.20;99.90;;;;;;5151420;27;19907;-45
2023/05/21 08:30:13;;;;;;;;;;;17.20;99.90;;;;;;5135552;27;19987;-45
2023/05/21 08:32:39;;;;;;;;;;;17.20;99.90;;;;;;5134327;27;19907;-45
2023/05/21 08:35:05;;;;;;;;;;;17.30;99.90;;;;;;5138754;27;19919;-44
2023/05/21 08:37:30;;;;;;;;;;;17.30;99.90;;;;;;5142894;27;19923;-46
2023/05/21 08:39:55;;;;;;;;;;;17.30;99.90;;;;;;5152244;27;20104;-46
2023/05/21 08:42:40;;;;;;;;;;;17.40;99.90;;;;;;5126101;27;19924;-47
2023/05/21 08:45:06;;;;;;;;;;;17.40;99.90;;;;;;5133655;27;20354;-46
2023/05/21 08:47:33;;;;;;;;;;;17.50;99.90;;;;;;5134508;27;19965;-45
2023/05/21 08:49:59;;;;;;;;;;;17.50;99.90;;;;;;5135930;27;20006;-45
2023/05/21 08:52:25;;;;;;;;;;;17.50;99.90;;;;;;5144290;27;19970;-46
2023/05/21 08:54:52;;;;;;;;;;;17.60;99.90;;;;;;5145469;27;19980;-46
2023/05/21 08:57:18;;;;;;;;;;;17.60;99.90;;;;;;5133555;27;19951;-46
2023/05/21 08:59:44;;;;;;;;;;;17.60;99.90;;;;;;5138892;27;20385;-45
2023/05/21 09:02:13;;;;;;;;;;;17.70;99.90;;;;;;5130274;27;19973;-47
2023/05/21 09:04:39;;;;;;;;;;;17.80;99.90;;;;;;5140632;27;19934;-45
2023/05/21 09:07:05;;;;;;;;;;;18.00;99.90;;;;;;5140779;27;20339;-45
2023/05/21 09:09:32;;;;;;;;;;;18.10;99.90;;;;;;5152056;27;19911;-46
2023/05/21 09:11:57;;;;;;;;;;;18.20;99.90;;;;;;5119722;27;20331;-45
2023/05/21 09:14:23;;;;;;;;;;;18.30;99.90;;;;;;5131736;27;20010;-47
2023/05/21 09:16:48;;;;;;;;;;;18.30;99.90;;;;;;5140312;27;20285;-49
2023/05/21 09:19:14;;;;;;;;;;;18.50;99.90;;;;;;5131754;28;19907;-46
2023/05/21 09:21:39;;;;;;;;;;;18.50;99.90;;;;;;5112973;28;19918;-45
2023/05/21 09:24:05;;;;;;;;;;;18.60;99.90;;;;;;5112309;28;19908;-46
2023/05/21 09:26:30;;;;;;;;;;;18.60;99.90;;;;;;5125038;28;19960;-45
2023/05/21 09:28:58;;;;;;;;;;;18.70;99.90;;;;;;5133560;28;19914;-43
2023/05/21 09:31:24;;;;;;;;;;;18.80;99.90;;;;;;5131605;28;19915;-45
2023/05/21 09:33:50;;;;;;;;;;;18.70;99.90;;;;;;5133296;28;19908;-44
2023/05/21 09:36:19;;;;;;;;;;;18.80;99.90;;;;;;5133835;28;20392;-46
2023/05/21 09:38:45;;;;;;;;;;;18.80;99.90;;;;;;5132708;28;19998;-46
2023/05/21 09:41:10;;;;;;;;;;;18.80;99.90;;;;;;5133381;28;20349;-46
2023/05/21 09:43:36;;;;;;;;;;;18.90;99.90;;;;;;5133449;28;19965;-45
2023/05/21 09:46:01;;;;;;;;;;;18.90;99.90;;;;;;5132474;28;19912;-45
2023/05/21 09:48:36;;;;;;;;;;;18.90;99.90;;;;;;5133451;28;19946;-45
2023/05/21 09:51:12;;;;;;;;;;;18.90;99.90;;;;;;5113309;28;19912;-44
2023/05/21 09:53:52;;;;;;;;;;;18.90;99.90;;;;;;5112068;28;19908;-46
2023/05/21 09:56:21;;;;;;;;;;;18.90;99.90;;;;;;5112925;28;19943;-47
2023/05/21 09:58:46;;;;;;;;;;;18.90;99.90;;;;;;5127353;28;20361;-47
2023/05/21 10:01:12;;;;;;;;;;;18.90;99.90;;;;;;5132552;28;19907;-45
2023/05/21 10:03:38;;;;;;;;;;;18.90;99.90;;;;;;5133260;28;19945;-45
2023/05/21 10:06:06;;;;;;;;;;;18.90;99.90;;;;;;5133209;28;20326;-45
2023/05/21 10:08:33;;;;;;;;;;;18.90;99.90;;;;;;5133088;27;20373;-45
2023/05/21 10:10:59;;;;;;;;;;;19.00;99.90;;;;;;5136928;27;19914;-47
2023/05/21 10:13:26;;;;;;;;;;;19.00;99.90;;;;;;5136168;27;19930;-46
2023/05/21 10:16:01;;;;;;;;;;;19.00;99.90;;;;;;5136800;27;19908;-45
2023/05/21 10:18:27;;;;;;;;;;;19.00;99.90;;;;;;5137024;27;20131;-45
2023/05/21 10:20:52;;;;;;;;;;;19.10;99.90;;;;;;5135248;27;19942;-45
2023/05/21 10:23:19;;;;;;;;;;;19.10;99.90;;;;;;5136731;27;19915;-46
2023/05/21 10:25:45;;;;;;;;;;;19.20;99.90;;;;;;5136642;27;20007;-47
2023/05/21 10:28:14;;;;;;;;;;;19.30;99.90;;;;;;5135936;27;19957;-45
2023/05/21 10:30:40;;;;;;;;;;;19.40;99.90;;;;;;5131954;27;19919;-46
2023/05/21 10:33:06;;;;;;;;;;;19.40;99.90;;;;;;5116057;28;19907;-46
2023/05/21 10:35:32;;;;;;;;;;;19.40;99.90;;;;;;5114992;28;19978;-46
2023/05/21 10:37:58;;;;;;;;;;;19.50;99.90;;;;;;5116001;28;19908;-46
2023/05/21 10:40:24;;;;;;;;;;;19.50;99.90;;;;;;5115969;28;20003;-45
2023/05/21 10:43:18;;;;;;;;;;;19.60;99.90;;;;;;5115051;28;19915;-44
2023/05/21 10:45:50;;;;;;;;;;;19.70;99.90;;;;;;5098051;28;19922;-44
2023/05/21 10:48:26;;;;;;;;;;;19.80;99.90;;;;;;5094182;28;20362;-45
2023/05/21 10:51:07;;;;;;;;;;;20.00;99.90;;;;;;5124937;27;19912;-45
2023/05/21 10:54:05;;;;;;;;;;;20.20;99.90;;;;;;5115789;28;19908;-45
2023/05/21 10:56:52;;;;;;;;;;;20.40;99.90;;;;;;5058192;28;20030;-45
2023/05/21 10:59:20;;;;;;;;;;;20.50;99.90;;;;;;5115670;28;19969;-46
2023/05/21 11:01:48;;;;;;;;;;;20.80;99.90;;;;;;5115268;28;19919;-44
2023/05/21 11:04:16;;;;;;;;;;;20.90;99.90;;;;;;5114715;28;19964;-45
2023/05/21 11:06:46;;;;;;;;;;;21.20;99.90;;;;;;5115289;28;20008;-44
2023/05/21 11:09:12;;;;;;;;;;;21.30;99.90;;;;;;5115542;28;19990;-46
2023/05/21 11:11:41;;;;;;;;;;;21.40;99.90;;;;;;5114555;28;20021;-45
2023/05/21 11:14:25;;;;;;;;;;;21.50;99.90;;;;;;5115477;28;19908;-45
2023/05/21 11:16:50;;;;;;;;;;;21.60;99.90;;;;;;5114846;28;20401;-45
2023/05/21 11:19:16;;;;;;;;;;;21.70;99.90;;;;;;5114555;28;19919;-45
2023/05/21 11:21:41;;;;;;;;;;;21.70;99.90;;;;;;5126919;27;20018;-44
2023/05/21 11:24:09;;;;;;;;;;;21.90;99.90;;;;;;5153989;27;20014;-47
2023/05/21 11:26:47;;;;;;;;;;;21.90;99.90;;;;;;5156059;27;19907;-46
2023/05/21 11:29:13;;;;;;;;;;;21.90;99.90;;;;;;5156582;27;19908;-46
2023/05/21 11:31:44;;;;;;;;;;;22.00;99.90;;;;;;5133353;27;19931;-46
2023/05/21 11:34:09;;;;;;;;;;;22.00;99.90;;;;;;5135088;27;19938;-45
2023/05/21 11:36:48;;;;;;;;;;;22.10;99.90;;;;;;5134973;27;19919;-47
2023/05/21 11:39:16;;;;;;;;;;;22.00;99.90;;;;;;5135506;27;19954;-47
2023/05/21 11:42:01;;;;;;;;;;;22.00;99.90;;;;;;5135748;27;19911;-46
2023/05/21 11:44:49;;;;;;;;;;;22.00;99.90;;;;;;5136072;27;19907;-46
2023/05/21 11:47:17;;;;;;;;;;;22.00;99.90;;;;;;5122446;27;20308;-47
2023/05/21 11:49:43;;;;;;;;;;;22.00;99.90;;;;;;5135279;27;19969;-44
2023/05/21 11:52:10;;;;;;;;;;;22.10;99.90;;;;;;5135173;27;19908;-47
2023/05/21 11:54:44;;;;;;;;;;;22.10;99.90;;;;;;5135586;27;19914;-46
2023/05/21 11:57:11;;;;;;;;;;;22.10;99.90;;;;;;5135671;27;19908;-47
2023/05/21 11:59:36;;;;;;;;;;;22.10;99.90;;;;;;5134644;27;20387;-45
2023/05/21 12:02:02;;;;;;;;;;;22.10;99.90;;;;;;5135372;27;19994;-46
2023/05/21 12:04:28;;;;;;;;;;;22.10;99.90;;;;;;5134268;27;20350;-47
2023/05/21 12:06:54;;;;;;;;;;;22.20;99.90;;;;;;5141477;27;20381;-46
2023/05/21 12:09:20;;;;;;;;;;;22.30;99.90;;;;;;5146532;27;19911;-47
2023/05/21 12:11:45;;;;;;;;;;;22.40;99.90;;;;;;5133028;27;19914;-46
2023/05/21 12:14:11;;;;;;;;;;;22.50;99.90;;;;;;5133629;27;19911;-47
2023/05/21 12:16:37;;;;;;;;;;;22.60;99.90;;;;;;5134715;27;19908;-47
2023/05/21 12:19:04;;;;;;;;;;;22.80;99.90;;;;;;5135255;27;19908;-47
2023/05/21 12:21:30;;;;;;;;;;;22.90;99.90;;;;;;5134628;27;19915;-45
2023/05/21 12:23:56;;;;;;;;;;;23.00;99.90;;;;;;5134999;27;19918;-46
2023/05/21 12:26:24;;;;;;;;;;;23.10;98.30;;;;;;5135019;27;19907;-48
2023/05/21 12:28:51;;;;;;;;;;;23.10;99.50;;;;;;5134634;27;19907;-46
2023/05/21 12:31:16;;;;;;;;;;;23.20;99.20;;;;;;5130836;27;19955;-46
2023/05/21 12:33:48;;;;;;;;;;;23.20;99.40;;;;;;5130387;27;19987;-46
2023/05/21 12:36:28;;;;;;;;;;;23.30;99.50;;;;;;5151813;27;19930;-46
2023/05/21 12:38:53;;;;;;;;;;;23.30;99.00;;;;;;5114057;28;20421;-45
2023/05/21 12:41:20;;;;;;;;;;;23.40;99.20;;;;;;5113018;28;19908;-46
2023/05/21 12:43:46;;;;;;;;;;;23.50;98.50;;;;;;5113799;28;20010;-46
2023/05/21 12:46:13;;;;;;;;;;;23.60;98.00;;;;;;5114144;28;19994;-45
2023/05/21 12:48:41;;;;;;;;;;;23.70;98.40;;;;;;5113640;28;20350;-47
2023/05/21 12:51:07;;;;;;;;;;;23.90;98.40;;;;;;5114029;28;19930;-46
2023/05/21 12:53:36;;;;;;;;;;;24.20;97.70;;;;;;5113676;28;20340;-46
2023/05/21 12:56:08;;;;;;;;;;;24.50;97.60;;;;;;5113430;28;19915;-46
2023/05/21 12:58:34;;;;;;;;;;;24.70;97.40;;;;;;5113998;28;19912;-46
2023/05/21 13:00:59;;;;;;;;;;;24.70;96.20;;;;;;5113894;28;19911;-47
2023/05/21 13:03:25;;;;;;;;;;;24.80;95.80;;;;;;5113453;28;19916;-48
2023/05/21 13:06:00;;;;;;;;;;;25.00;95.80;;;;;;5113795;28;19912;-47
2023/05/21 13:08:26;;;;;;;;;;;25.20;95.40;;;;;;5113996;28;19915;-46
2023/05/21 13:10:51;;;;;;;;;;;25.30;95.30;;;;;;5113351;28;20329;-48
2023/05/21 13:13:17;;;;;;;;;;;25.40;94.70;;;;;;5113831;28;19915;-46
2023/05/21 13:15:42;;;;;;;;;;;25.50;94.20;;;;;;5113704;28;19908;-47
2023/05/21 13:18:08;;;;;;;;;;;25.70;94.60;;;;;;5113118;28;19908;-46
2023/05/21 13:20:33;;;;;;;;;;;25.80;94.60;;;;;;5113877;28;19943;-46
2023/05/21 13:22:59;;;;;;;;;;;26.00;93.60;;;;;;5113609;28;19923;-46
2023/05/21 13:25:28;;;;;;;;;;;26.00;93.40;;;;;;5113375;28;19908;-46
2023/05/21 13:27:53;;;;;;;;;;;26.10;92.60;;;;;;5113728;28;19929;-46
2023/05/21 13:30:19;;;;;;;;;;;26.30;92.90;;;;;;5113388;28;20437;-45
2023/05/21 13:32:45;;;;;;;;;;;26.40;92.30;;;;;;5127593;28;20331;-46
2023/05/21 13:35:11;;;;;;;;;;;26.60;92.20;;;;;;5133956;28;19972;-47
2023/05/21 13:37:37;;;;;;;;;;;26.70;91.60;;;;;;5133574;28;19919;-46
2023/05/21 13:40:04;;;;;;;;;;;26.80;90.80;;;;;;5134175;28;19911;-46
2023/05/21 13:42:30;;;;;;;;;;;26.80;90.30;;;;;;5134178;28;19923;-46
2023/05/21 13:44:55;;;;;;;;;;;26.90;90.70;;;;;;5135860;27;19911;-46
2023/05/21 13:47:21;;;;;;;;;;;27.00;89.40;;;;;;5138525;27;19907;-47
2023/05/21 13:49:46;;;;;;;;;;;27.10;89.00;;;;;;5138313;27;19933;-47
2023/05/21 13:52:12;;;;;;;;;;;27.30;88.40;;;;;;5137771;27;20314;-45
2023/05/21 13:54:37;;;;;;;;;;;27.40;88.50;;;;;;5138192;27;19911;-46
2023/05/21 13:57:03;;;;;;;;;;;27.50;87.50;;;;;;5137949;27;19908;-45
2023/05/21 13:59:28;;;;;;;;;;;27.60;88.00;;;;;;5137415;27;19907;-49
2023/05/21 14:01:54;;;;;;;;;;;27.50;86.60;;;;;;5130573;27;19926;-47
2023/05/21 14:04:19;;;;;;;;;;;27.50;86.20;;;;;;5117409;28;19912;-46
2023/05/21 14:06:45;;;;;;;;;;;27.30;84.60;;;;;;5116518;28;19939;-46
2023/05/21 14:09:11;;;;;;;;;;;27.30;86.30;;;;;;5117257;28;19908;-46
2023/05/21 14:11:37;;;;;;;;;;;27.20;86.40;;;;;;5122460;27;19916;-46
2023/05/21 14:14:02;;;;;;;;;;;27.10;86.00;;;;;;5133376;27;19912;-46